Time;durP1;ratioP1;P1;durP2;ratioP2;P2;SDS_P1;SDS_P2;PMS_P1;PMS_P2;Temp;Humidity;BMP_temperature;BMP_pressure;BME280_temperature;BME280_humidity;BME280_pressure;Samples;Min_cycle;Max_cycle;Signal;HPM_P1;HPM_P2
2021/09/09 00:02:14;;;;;;;8.32;4.43;;;17.10;99.90;;;;;;4912879;29;20036;-73
2021/09/09 00:04:39;;;;;;;8.00;4.75;;;17.10;99.90;;;;;;4929644;29;20035;-75
2021/09/09 00:07:05;;;;;;;9.40;4.65;;;17.00;99.90;;;;;;4930095;29;20374;-74
2021/09/09 00:09:31;;;;;;;7.88;4.00;;;17.00;99.90;;;;;;4913043;29;20091;-76
2021/09/09 00:11:57;;;;;;;13.93;4.40;;;17.00;99.90;;;;;;4913049;29;20595;-75
2021/09/09 00:14:22;;;;;;;9.10;4.90;;;17.00;99.90;;;;;;4929658;29;20085;-73
2021/09/09 00:16:48;;;;;;;9.70;4.85;;;16.90;99.90;;;;;;4929681;29;20079;-74
2021/09/09 00:19:14;;;;;;;8.98;4.65;;;16.90;99.90;;;;;;4912550;29;20028;-74
2021/09/09 00:21:40;;;;;;;11.90;4.47;;;16.90;99.90;;;;;;4929593;29;20123;-74
2021/09/09 00:24:05;;;;;;;11.23;4.78;;;16.80;99.90;;;;;;4929372;29;20028;-74
2021/09/09 00:26:31;;;;;;;7.40;4.47;;;16.80;99.90;;;;;;4912925;29;20088;-74
2021/09/09 00:28:57;;;;;;;10.98;5.50;;;16.80;99.90;;;;;;4929857;29;20028;-75
2021/09/09 00:31:22;;;;;;;10.32;4.22;;;16.70;99.90;;;;;;4929151;29;20114;-74
2021/09/09 00:33:48;;;;;;;11.25;5.07;;;16.60;99.90;;;;;;4929739;29;20028;-74
2021/09/09 00:36:13;;;;;;;8.05;4.75;;;16.70;99.90;;;;;;4912004;29;20039;-74
2021/09/09 00:38:39;;;;;;;8.57;5.05;;;16.70;99.90;;;;;;4929053;29;20087;-74
2021/09/09 00:41:05;;;;;;;9.75;5.10;;;16.80;99.90;;;;;;4929688;29;20040;-74
2021/09/09 00:43:31;;;;;;;12.05;4.90;;;16.70;99.90;;;;;;4929257;29;20027;-75
2021/09/09 00:45:57;;;;;;;11.65;4.47;;;16.80;99.90;;;;;;4929275;29;20024;-75
2021/09/09 00:48:26;;;;;;;9.48;5.10;;;16.70;99.90;;;;;;4928944;29;20031;-74
2021/09/09 00:50:52;;;;;;;9.18;5.25;;;16.60;99.90;;;;;;4928833;29;20110;-74
2021/09/09 00:53:19;;;;;;;13.45;4.88;;;16.60;99.90;;;;;;4912033;29;20028;-74
2021/09/09 00:55:47;;;;;;;12.82;5.82;;;16.50;99.90;;;;;;4929225;29;20032;-74
2021/09/09 00:58:13;;;;;;;12.93;5.25;;;16.50;99.90;;;;;;4928645;29;20095;-76
2021/09/09 01:00:39;;;;;;;19.40;5.40;;;16.50;99.90;;;;;;4928842;29;20024;-74
2021/09/09 01:03:08;;;;;;;14.60;5.25;;;16.50;99.90;;;;;;4929050;29;20036;-75
2021/09/09 01:05:38;;;;;;;11.25;4.63;;;16.40;99.90;;;;;;4928641;29;20036;-75
2021/09/09 01:08:04;;;;;;;9.98;5.25;;;16.40;99.90;;;;;;4928890;29;20083;-75
2021/09/09 01:10:31;;;;;;;13.85;5.25;;;16.40;99.90;;;;;;4928890;29;20039;-75
2021/09/09 01:12:57;;;;;;;8.65;4.20;;;16.30;99.90;;;;;;4928382;29;20024;-74
2021/09/09 01:15:22;;;;;;;11.00;5.65;;;16.30;99.90;;;;;;4928559;29;20112;-73
2021/09/09 01:17:48;;;;;;;8.75;4.60;;;16.30;99.90;;;;;;4928563;29;20092;-74
2021/09/09 01:20:14;;;;;;;8.48;4.60;;;16.30;99.90;;;;;;4928347;29;20096;-75
2021/09/09 01:22:41;;;;;;;15.60;5.22;;;16.30;99.90;;;;;;4911715;29;20079;-75
2021/09/09 01:25:08;;;;;;;11.27;5.95;;;16.30;99.90;;;;;;4911475;29;20032;-74
2021/09/09 01:27:34;;;;;;;10.38;4.80;;;16.30;99.90;;;;;;4928260;29;20032;-75
2021/09/09 01:30:00;;;;;;;12.30;5.68;;;16.20;99.90;;;;;;4928745;29;20036;-74
2021/09/09 01:32:26;;;;;;;9.50;4.97;;;16.20;99.90;;;;;;4928406;29;20040;-75
2021/09/09 01:34:51;;;;;;;14.25;5.70;;;16.20;99.90;;;;;;4928180;29;20047;-75
2021/09/09 01:37:20;;;;;;;8.85;5.40;;;16.20;99.90;;;;;;4928438;29;20028;-75
2021/09/09 01:39:47;;;;;;;9.95;5.22;;;16.20;99.90;;;;;;4928283;29;20032;-73
2021/09/09 01:42:13;;;;;;;10.30;5.47;;;16.10;99.90;;;;;;4928087;29;20040;-74
2021/09/09 01:44:39;;;;;;;11.05;5.63;;;16.10;99.90;;;;;;4928080;29;20466;-75
2021/09/09 01:47:05;;;;;;;11.57;5.53;;;16.10;99.90;;;;;;4910404;29;20024;-74
2021/09/09 01:49:31;;;;;;;8.07;4.20;;;16.00;99.90;;;;;;4928290;29;20028;-74
2021/09/09 01:51:57;;;;;;;14.05;5.45;;;16.00;99.90;;;;;;4928415;29;20028;-74
2021/09/09 01:54:28;;;;;;;9.73;5.80;;;16.00;99.90;;;;;;4927773;29;20047;-74
2021/09/09 01:56:54;;;;;;;12.20;5.43;;;16.00;99.90;;;;;;4928438;29;20038;-73
2021/09/09 01:59:20;;;;;;;11.00;5.18;;;16.00;99.90;;;;;;4927969;29;20032;-74
2021/09/09 02:01:46;;;;;;;13.38;5.85;;;15.90;99.90;;;;;;4927870;29;20047;-74
2021/09/09 02:04:11;;;;;;;13.32;5.72;;;15.90;99.90;;;;;;4928082;29;20030;-73
2021/09/09 02:06:37;;;;;;;11.85;5.40;;;15.80;99.90;;;;;;4911003;29;20047;-74
2021/09/09 02:09:03;;;;;;;14.48;6.05;;;15.80;99.90;;;;;;4927667;29;20028;-74
2021/09/09 02:11:30;;;;;;;9.70;5.38;;;15.80;99.90;;;;;;4928219;29;20079;-74
2021/09/09 02:13:56;;;;;;;10.98;5.57;;;15.80;99.90;;;;;;4927691;29;20048;-73
2021/09/09 02:16:22;;;;;;;11.10;5.70;;;15.80;99.90;;;;;;4927842;29;20036;-73
2021/09/09 02:18:47;;;;;;;13.20;6.00;;;15.80;99.90;;;;;;4928035;29;20421;-74
2021/09/09 02:21:13;;;;;;;11.63;5.78;;;15.80;99.90;;;;;;4927837;29;20054;-76
2021/09/09 02:23:39;;;;;;;11.77;5.45;;;15.80;99.90;;;;;;4928527;29;20040;-74
2021/09/09 02:26:05;;;;;;;12.45;6.38;;;15.80;99.90;;;;;;4928377;29;20039;-75
2021/09/09 02:28:31;;;;;;;17.65;6.28;;;15.70;99.90;;;;;;4910882;29;20032;-74
2021/09/09 02:30:57;;;;;;;14.32;5.30;;;15.70;99.90;;;;;;4910881;29;20079;-74
2021/09/09 02:33:22;;;;;;;15.30;6.40;;;15.70;99.90;;;;;;4927994;29;20061;-73
2021/09/09 02:35:48;;;;;;;12.75;6.25;;;15.70;99.90;;;;;;4927618;29;20031;-74
2021/09/09 02:38:14;;;;;;;11.80;6.47;;;15.70;99.90;;;;;;4927527;29;20032;-75
2021/09/09 02:40:39;;;;;;;13.38;6.70;;;15.60;99.90;;;;;;4927828;29;20028;-74
2021/09/09 02:43:05;;;;;;;13.05;6.05;;;15.60;99.90;;;;;;4910363;29;20028;-74
2021/09/09 02:45:31;;;;;;;9.70;5.18;;;15.50;99.90;;;;;;4910778;29;20032;-73
2021/09/09 02:47:56;;;;;;;10.93;5.82;;;15.60;99.90;;;;;;4928040;29;20405;-74
2021/09/09 02:50:22;;;;;;;16.15;6.22;;;15.60;99.90;;;;;;4927478;29;20039;-75
2021/09/09 02:52:48;;;;;;;13.15;6.05;;;15.40;99.90;;;;;;4927564;29;20028;-74
2021/09/09 02:55:13;;;;;;;19.33;6.60;;;15.50;99.90;;;;;;4927622;29;20366;-73
2021/09/09 02:57:39;;;;;;;9.85;5.78;;;15.50;99.90;;;;;;4927607;29;20039;-73
2021/09/09 03:00:06;;;;;;;17.40;6.07;;;15.50;99.90;;;;;;4931005;29;20084;-73
2021/09/09 03:02:32;;;;;;;12.98;6.00;;;15.50;99.90;;;;;;4931327;29;20516;-75
2021/09/09 03:04:57;;;;;;;16.17;8.30;;;15.50;99.90;;;;;;4930974;29;20031;-75
2021/09/09 03:07:23;;;;;;;14.30;5.78;;;15.40;99.90;;;;;;4931174;29;20079;-76
2021/09/09 03:09:48;;;;;;;17.35;6.35;;;15.40;99.90;;;;;;4913928;29;20036;-75
2021/09/09 03:12:14;;;;;;;11.25;5.78;;;15.50;99.90;;;;;;4930652;29;20056;-74
2021/09/09 03:14:40;;;;;;;13.52;6.28;;;15.40;99.90;;;;;;4930630;29;20052;-75
2021/09/09 03:17:05;;;;;;;14.88;6.55;;;15.40;99.90;;;;;;4931107;29;20028;-75
2021/09/09 03:19:31;;;;;;;16.25;6.85;;;15.40;99.90;;;;;;4930693;29;20024;-73
2021/09/09 03:21:57;;;;;;;15.98;6.88;;;15.40;99.90;;;;;;4931082;29;20055;-74
2021/09/09 03:24:22;;;;;;;11.82;6.00;;;15.40;99.90;;;;;;4930847;29;20020;-75
2021/09/09 03:26:49;;;;;;;17.85;7.28;;;15.30;99.90;;;;;;4930385;29;20032;-75
2021/09/09 03:29:15;;;;;;;13.48;6.53;;;15.30;99.90;;;;;;4930511;29;20028;-75
2021/09/09 03:31:40;;;;;;;20.65;7.45;;;15.30;99.90;;;;;;4930545;29;20115;-74
2021/09/09 03:34:06;;;;;;;19.42;7.55;;;15.20;99.90;;;;;;4913270;29;20028;-74
2021/09/09 03:36:32;;;;;;;17.10;7.07;;;15.30;99.90;;;;;;4930821;29;20028;-74
2021/09/09 03:39:00;;;;;;;11.13;5.78;;;15.20;99.90;;;;;;4930316;29;20056;-75
2021/09/09 03:41:26;;;;;;;17.45;6.68;;;15.20;99.90;;;;;;4930447;29;20048;-77
2021/09/09 03:43:52;;;;;;;14.55;6.28;;;15.20;99.90;;;;;;4913372;29;20529;-74
2021/09/09 03:46:17;;;;;;;12.02;6.13;;;15.20;99.90;;;;;;4929932;29;20039;-75
2021/09/09 03:48:43;;;;;;;12.48;6.13;;;15.10;99.90;;;;;;4930475;29;20036;-73
2021/09/09 03:51:08;;;;;;;14.57;6.90;;;15.10;99.90;;;;;;4930466;29;20060;-75
2021/09/09 03:53:34;;;;;;;13.60;6.45;;;15.10;99.90;;;;;;4929988;29;20063;-75
2021/09/09 03:56:00;;;;;;;14.95;6.10;;;15.10;99.90;;;;;;4930682;29;20028;-75
2021/09/09 03:58:26;;;;;;;11.00;6.28;;;15.10;99.90;;;;;;4930412;29;20111;-74
2021/09/09 04:00:52;;;;;;;16.02;6.93;;;15.20;99.90;;;;;;4929708;29;20088;-74
2021/09/09 04:03:17;;;;;;;16.83;8.45;;;15.00;99.90;;;;;;4929972;29;20032;-74
2021/09/09 04:05:43;;;;;;;18.42;7.47;;;15.00;99.90;;;;;;4912908;29;20100;-74
2021/09/09 04:08:08;;;;;;;15.02;7.63;;;15.00;99.90;;;;;;4929631;29;20028;-74
2021/09/09 04:10:35;;;;;;;14.10;6.93;;;15.00;99.90;;;;;;4929460;29;20028;-74
2021/09/09 04:13:00;;;;;;;15.43;6.85;;;15.00;99.90;;;;;;4929556;29;20393;-74
2021/09/09 04:15:26;;;;;;;18.30;7.28;;;14.90;99.90;;;;;;4929768;29;20052;-75
2021/09/09 04:17:52;;;;;;;13.60;7.55;;;14.90;99.90;;;;;;4930007;29;20064;-75
2021/09/09 04:20:17;;;;;;;18.00;7.20;;;14.90;99.90;;;;;;4912306;29;20035;-74
2021/09/09 04:22:43;;;;;;;32.10;8.55;;;14.90;99.90;;;;;;4929575;29;20044;-74
2021/09/09 04:25:09;;;;;;;19.33;8.55;;;14.90;99.90;;;;;;4929656;29;20032;-75
2021/09/09 04:27:35;;;;;;;13.55;6.95;;;14.80;99.90;;;;;;4929538;29;20098;-75
2021/09/09 04:30:02;;;;;;;14.30;6.97;;;14.80;99.90;;;;;;4929631;29;20039;-76
2021/09/09 04:32:27;;;;;;;22.15;7.60;;;14.80;99.90;;;;;;4912668;29;20072;-75
2021/09/09 04:34:53;;;;;;;14.27;7.03;;;14.80;99.90;;;;;;4929274;29;20417;-75
2021/09/09 04:37:19;;;;;;;14.43;7.65;;;14.80;99.90;;;;;;4912897;29;20024;-75
2021/09/09 04:39:44;;;;;;;14.43;7.10;;;14.90;99.90;;;;;;4912662;29;20028;-76
2021/09/09 04:42:10;;;;;;;18.00;8.00;;;14.70;99.90;;;;;;4918121;29;20052;-76
2021/09/09 04:44:36;;;;;;;15.40;7.80;;;14.70;99.90;;;;;;4922505;29;20031;-76
2021/09/09 04:47:02;;;;;;;16.77;7.65;;;14.70;99.90;;;;;;4910376;29;20493;-77
2021/09/09 04:49:27;;;;;;;15.45;7.60;;;14.70;99.90;;;;;;4910117;29;20117;-75
2021/09/09 04:51:53;;;;;;;15.88;7.82;;;14.70;99.90;;;;;;4910426;29;20025;-77
2021/09/09 04:54:19;;;;;;;17.92;8.25;;;14.70;99.90;;;;;;4910927;29;20052;-75
2021/09/09 04:56:45;;;;;;;18.13;8.25;;;14.70;99.90;;;;;;4918115;29;20044;-77
2021/09/09 04:59:11;;;;;;;15.48;7.75;;;14.60;99.90;;;;;;4911820;29;20028;-75
2021/09/09 05:01:36;;;;;;;16.65;7.65;;;14.60;99.90;;;;;;4928932;29;20051;-75
2021/09/09 05:04:02;;;;;;;17.90;8.45;;;14.50;99.90;;;;;;4928795;29;20033;-76
2021/09/09 05:06:28;;;;;;;16.13;8.13;;;14.60;99.90;;;;;;4929138;29;20048;-75
2021/09/09 05:08:53;;;;;;;15.60;7.80;;;14.60;99.90;;;;;;4911608;29;20070;-77
2021/09/09 05:11:22;;;;;;;32.35;8.57;;;14.60;99.90;;;;;;4928785;29;20068;-76
2021/09/09 05:13:54;;;;;;;20.27;7.88;;;14.60;99.90;;;;;;4916285;29;20069;-76
2021/09/09 05:16:20;;;;;;;14.40;7.45;;;14.60;99.90;;;;;;4907053;29;20064;-75
2021/09/09 05:18:45;;;;;;;16.88;8.52;;;14.60;99.90;;;;;;4909474;29;20043;-76
2021/09/09 05:21:11;;;;;;;14.75;7.72;;;14.60;99.90;;;;;;4910432;29;20096;-76
2021/09/09 05:23:36;;;;;;;16.92;8.57;;;14.60;99.90;;;;;;4921293;29;20028;-76
2021/09/09 05:26:02;;;;;;;19.02;8.05;;;14.70;99.90;;;;;;4910995;29;20029;-77
2021/09/09 05:28:27;;;;;;;18.60;8.93;;;14.60;99.90;;;;;;4909855;29;20580;-77
2021/09/09 05:30:53;;;;;;;15.25;8.50;;;14.70;99.90;;;;;;4909268;29;20048;-75
2021/09/09 05:33:19;;;;;;;22.83;8.10;;;14.70;99.90;;;;;;4909568;29;20032;-74
2021/09/09 05:35:47;;;;;;;27.58;8.73;;;14.70;99.90;;;;;;4892717;29;20036;-76
2021/09/09 05:38:13;;;;;;;15.32;7.82;;;14.70;99.90;;;;;;4892152;29;20064;-74
2021/09/09 05:40:39;;;;;;;17.95;7.88;;;14.80;99.90;;;;;;4909757;29;20116;-75
2021/09/09 05:43:05;;;;;;;12.95;7.68;;;14.80;99.90;;;;;;4909255;29;20051;-76
2021/09/09 05:45:31;;;;;;;18.13;8.10;;;14.80;99.90;;;;;;4892610;29;20037;-75
2021/09/09 05:47:57;;;;;;;14.48;7.38;;;14.80;99.90;;;;;;4892781;29;20028;-76
2021/09/09 05:50:23;;;;;;;21.48;8.35;;;14.90;99.90;;;;;;4909121;29;20028;-76
2021/09/09 05:52:49;;;;;;;14.63;8.30;;;14.90;99.90;;;;;;4892252;29;20043;-76
2021/09/09 05:55:15;;;;;;;17.50;8.75;;;15.00;99.90;;;;;;4909338;29;20036;-77
2021/09/09 05:57:41;;;;;;;15.07;7.97;;;15.00;99.90;;;;;;4909301;29;20039;-77
2021/09/09 06:00:10;;;;;;;18.13;8.82;;;15.10;99.90;;;;;;4909262;29;20024;-76
2021/09/09 06:02:42;;;;;;;21.42;8.95;;;15.10;99.90;;;;;;4909322;29;20047;-77
2021/09/09 06:05:09;;;;;;;20.05;8.85;;;15.10;99.90;;;;;;4891990;29;20047;-76
2021/09/09 06:07:34;;;;;;;16.80;8.40;;;15.20;99.90;;;;;;4892419;29;20063;-77
2021/09/09 06:10:00;;;;;;;15.55;8.27;;;15.20;99.90;;;;;;4909341;29;20481;-77
2021/09/09 06:12:26;;;;;;;16.63;8.05;;;15.20;99.90;;;;;;4909004;29;20041;-74
2021/09/09 06:14:52;;;;;;;24.33;8.60;;;15.20;99.90;;;;;;4908875;29;20049;-74
2021/09/09 06:17:18;;;;;;;29.63;8.18;;;15.40;99.90;;;;;;4909772;29;20043;-78
2021/09/09 06:19:44;;;;;;;14.50;7.85;;;15.30;99.90;;;;;;4907307;29;20036;-76
2021/09/09 06:22:09;;;;;;;16.10;7.88;;;15.40;99.90;;;;;;4909122;29;20052;-76
2021/09/09 06:24:35;;;;;;;15.95;8.55;;;15.40;99.90;;;;;;4909046;29;20108;-78
2021/09/09 06:27:00;;;;;;;17.83;8.63;;;15.40;99.90;;;;;;4908806;29;20025;-77
2021/09/09 06:29:26;;;;;;;15.10;7.63;;;15.50;99.90;;;;;;4909248;29;20064;-77
2021/09/09 06:31:52;;;;;;;21.55;9.68;;;15.50;99.90;;;;;;4909047;29;20069;-77
2021/09/09 06:34:17;;;;;;;23.70;8.43;;;15.50;99.90;;;;;;4894646;29;20039;-77
2021/09/09 06:36:43;;;;;;;18.40;8.30;;;15.60;99.90;;;;;;4912744;29;20033;-75
2021/09/09 06:39:09;;;;;;;19.52;8.98;;;15.70;99.90;;;;;;4895519;29;20080;-76
2021/09/09 06:41:34;;;;;;;18.77;8.35;;;15.80;99.90;;;;;;4912359;29;20047;-76
2021/09/09 06:44:00;;;;;;;16.45;7.40;;;15.70;99.90;;;;;;4912876;29;20032;-75
2021/09/09 06:46:25;;;;;;;20.58;8.32;;;15.80;99.90;;;;;;4895802;29;20029;-77
2021/09/09 06:48:51;;;;;;;18.60;8.65;;;15.80;99.90;;;;;;4912725;29;20032;-77
2021/09/09 06:51:21;;;;;;;21.38;8.30;;;15.90;99.90;;;;;;4913110;29;20057;-79
2021/09/09 06:53:47;;;;;;;17.85;8.90;;;16.00;99.90;;;;;;4912449;29;20055;-78
2021/09/09 06:56:13;;;;;;;16.35;8.30;;;16.00;99.90;;;;;;4895471;29;20036;-76
2021/09/09 06:58:38;;;;;;;17.80;7.80;;;16.10;99.90;;;;;;4912400;29;20137;-76
2021/09/09 07:01:04;;;;;;;20.30;7.15;;;16.20;99.90;;;;;;4911961;29;20041;-77
2021/09/09 07:03:30;;;;;;;17.73;7.72;;;16.30;99.90;;;;;;4899651;29;20107;-78
2021/09/09 07:05:57;;;;;;;25.83;9.10;;;16.30;99.90;;;;;;4917683;29;20061;-76
2021/09/09 07:08:23;;;;;;;19.10;8.40;;;16.40;99.90;;;;;;4925377;29;20027;-76
2021/09/09 07:10:48;;;;;;;19.35;9.60;;;16.40;99.90;;;;;;4931115;29;20079;-76
2021/09/09 07:13:17;;;;;;;18.77;9.20;;;16.60;99.90;;;;;;4930601;29;20036;-79
2021/09/09 07:15:43;;;;;;;19.33;9.32;;;16.60;99.90;;;;;;4913443;29;20554;-76
2021/09/09 07:18:09;;;;;;;20.15;8.60;;;16.80;99.90;;;;;;4930691;29;20481;-75
2021/09/09 07:20:34;;;;;;;14.70;8.65;;;16.80;99.90;;;;;;4922630;29;20040;-75
2021/09/09 07:23:00;;;;;;;14.38;7.65;;;16.80;99.90;;;;;;4912950;29;20044;-75
2021/09/09 07:25:25;;;;;;;15.88;8.45;;;17.00;99.90;;;;;;4910962;29;20024;-74
2021/09/09 07:27:51;;;;;;;15.82;9.00;;;17.10;99.90;;;;;;4910533;29;20103;-76
2021/09/09 07:30:16;;;;;;;20.02;8.82;;;17.20;99.90;;;;;;4893965;29;20031;-75
2021/09/09 07:32:42;;;;;;;19.45;8.73;;;17.30;99.90;;;;;;4913942;29;20111;-74
2021/09/09 07:35:09;;;;;;;18.27;8.85;;;17.50;99.90;;;;;;4903406;29;20032;-76
2021/09/09 07:37:35;;;;;;;17.73;8.32;;;17.60;99.90;;;;;;4900337;29;20065;-74
2021/09/09 07:40:01;;;;;;;22.38;9.73;;;17.60;99.90;;;;;;4907137;29;20029;-75
2021/09/09 07:42:26;;;;;;;22.33;9.40;;;17.70;99.90;;;;;;4910438;29;20044;-74
2021/09/09 07:44:52;;;;;;;15.80;8.05;;;17.80;99.90;;;;;;4915772;29;20040;-74
2021/09/09 07:47:18;;;;;;;30.33;8.10;;;18.00;99.90;;;;;;4898581;29;20081;-76
2021/09/09 07:49:43;;;;;;;20.23;8.88;;;18.00;99.90;;;;;;4911449;29;20060;-75
2021/09/09 07:52:09;;;;;;;15.90;8.85;;;18.10;99.90;;;;;;4907025;29;20029;-75
2021/09/09 07:54:35;;;;;;;24.27;9.15;;;18.20;99.90;;;;;;4924894;29;20025;-75
2021/09/09 07:57:01;;;;;;;23.23;9.68;;;18.20;99.90;;;;;;4922614;29;20039;-75
2021/09/09 07:59:26;;;;;;;19.50;9.18;;;18.40;99.90;;;;;;4922378;29;20025;-75
2021/09/09 08:01:52;;;;;;;19.02;8.68;;;18.50;99.90;;;;;;4922644;29;20049;-74
2021/09/09 08:04:18;;;;;;;15.27;8.23;;;18.70;99.90;;;;;;4913723;29;20029;-76
2021/09/09 08:06:44;;;;;;;32.13;9.38;;;18.90;99.90;;;;;;4917037;29;20528;-75
2021/09/09 08:09:10;;;;;;;15.75;8.57;;;19.10;99.90;;;;;;4911544;29;20500;-75
2021/09/09 08:11:36;;;;;;;14.05;8.13;;;19.20;99.90;;;;;;4920929;29;20092;-76
2021/09/09 08:14:03;;;;;;;21.85;9.00;;;19.30;99.90;;;;;;4912996;29;20074;-75
2021/09/09 08:16:29;;;;;;;16.98;8.02;;;19.30;99.90;;;;;;4928046;29;20037;-74
2021/09/09 08:19:02;;;;;;;19.58;7.65;;;19.60;99.90;;;;;;4918950;29;20044;-74
2021/09/09 08:21:27;;;;;;;15.98;7.78;;;19.70;99.90;;;;;;4894100;29;20044;-75
2021/09/09 08:23:53;;;;;;;18.30;8.43;;;19.80;99.90;;;;;;4925792;29;20037;-74
2021/09/09 08:26:18;;;;;;;17.65;8.77;;;19.90;99.90;;;;;;4903851;29;20148;-76
2021/09/09 08:28:45;;;;;;;19.60;7.43;;;20.00;99.90;;;;;;4893958;29;20040;-76
2021/09/09 08:31:11;;;;;;;34.15;8.25;;;20.10;99.90;;;;;;4909889;29;20032;-75
2021/09/09 08:33:38;;;;;;;22.45;9.15;;;20.20;99.90;;;;;;4915274;29;20096;-77
2021/09/09 08:36:06;;;;;;;17.52;8.05;;;20.30;99.90;;;;;;4909509;29;20081;-75
2021/09/09 08:38:32;;;;;;;14.70;7.88;;;20.40;99.90;;;;;;4910403;29;20028;-77
2021/09/09 08:41:03;;;;;;;18.17;8.35;;;20.50;99.90;;;;;;4913773;29;20040;-76
2021/09/09 08:43:30;;;;;;;16.67;7.75;;;20.50;99.90;;;;;;4929650;29;20084;-78
2021/09/09 08:46:00;;;;;;;16.63;6.88;;;20.60;99.90;;;;;;4912449;29;20127;-76
2021/09/09 08:48:27;;;;;;;26.70;8.52;;;20.70;99.90;;;;;;4928945;29;20048;-75
2021/09/09 08:50:53;;;;;;;21.42;8.57;;;20.80;99.90;;;;;;4926288;29;20032;-76
2021/09/09 08:53:19;;;;;;;13.10;6.65;;;20.90;99.90;;;;;;4910654;29;20116;-74
2021/09/09 08:55:44;;;;;;;16.08;7.10;;;21.00;99.90;;;;;;4910054;29;20036;-73
2021/09/09 08:58:10;;;;;;;21.17;7.03;;;21.00;99.90;;;;;;4910533;29;20036;-74
2021/09/09 09:00:37;;;;;;;14.80;7.45;;;21.00;99.90;;;;;;4911130;29;20028;-75
2021/09/09 09:03:03;;;;;;;17.63;6.70;;;21.20;99.90;;;;;;4910523;29;20044;-77
2021/09/09 09:05:37;;;;;;;13.55;6.63;;;21.30;99.90;;;;;;4915590;29;20196;-75
2021/09/09 09:08:05;;;;;;;21.67;8.32;;;21.40;99.90;;;;;;4915498;29;20037;-75
2021/09/09 09:10:33;;;;;;;13.55;6.40;;;21.50;99.90;;;;;;4910077;29;20043;-74
2021/09/09 09:12:59;;;;;;;18.13;7.43;;;21.60;99.90;;;;;;4913381;29;20044;-80
2021/09/09 09:15:29;;;;;;;12.85;6.63;;;21.70;99.90;;;;;;4894353;29;20057;-75
2021/09/09 09:18:07;;;;;;;14.52;5.90;;;21.80;99.90;;;;;;4895894;29;20060;-76
2021/09/09 09:20:49;;;;;;;14.13;6.57;;;22.00;99.90;;;;;;4902256;29;20453;-74
2021/09/09 09:23:26;;;;;;;11.55;6.30;;;22.10;99.90;;;;;;4908106;29;20036;-75
2021/09/09 09:25:58;;;;;;;9.25;5.22;;;22.00;99.90;;;;;;4908630;29;20028;-74
2021/09/09 09:28:52;;;;;;;14.23;6.63;;;22.10;99.90;;;;;;4898478;29;20029;-75
2021/09/09 09:31:35;;;;;;;10.18;5.75;;;22.20;99.90;;;;;;4909480;29;20036;-72
2021/09/09 09:34:26;;;;;;;11.48;5.97;;;22.30;99.90;;;;;;4909702;29;20055;-76
2021/09/09 09:36:52;;;;;;;11.32;5.78;;;22.30;99.90;;;;;;4909241;29;20040;-73
2021/09/09 09:39:19;;;;;;;15.07;6.90;;;22.40;99.90;;;;;;4906956;29;20053;-76
2021/09/09 09:41:53;;;;;;;13.73;6.20;;;22.50;99.90;;;;;;4890818;29;20043;-74
2021/09/09 09:44:29;;;;;;;15.43;5.93;;;22.60;99.90;;;;;;4890430;29;20032;-72
2021/09/09 09:47:06;;;;;;;28.05;6.53;;;22.70;99.90;;;;;;4890871;29;20114;-76
2021/09/09 09:49:33;;;;;;;13.02;7.13;;;22.70;99.90;;;;;;4890616;29;20033;-74
2021/09/09 09:52:02;;;;;;;11.27;6.03;;;22.80;99.90;;;;;;4890962;29;20036;-72
2021/09/09 09:54:29;;;;;;;17.88;6.63;;;22.90;99.90;;;;;;4890927;29;20031;-72
2021/09/09 09:56:56;;;;;;;15.55;6.47;;;23.00;99.90;;;;;;4890437;29;20025;-77
2021/09/09 09:59:22;;;;;;;9.77;5.15;;;23.00;99.90;;;;;;4889087;29;20032;-76
2021/09/09 10:01:48;;;;;;;11.02;5.63;;;23.20;99.90;;;;;;4890592;29;20041;-76
2021/09/09 10:04:19;;;;;;;11.00;5.22;;;23.40;99.90;;;;;;4890156;29;20033;-74
2021/09/09 10:06:48;;;;;;;14.82;5.95;;;23.60;99.90;;;;;;4889285;29;20049;-74
2021/09/09 10:09:14;;;;;;;9.45;5.20;;;23.80;99.90;;;;;;4889997;29;20032;-74
2021/09/09 10:11:40;;;;;;;13.05;5.32;;;23.90;99.90;;;;;;4891057;29;20056;-72
2021/09/09 10:14:07;;;;;;;10.10;5.32;;;24.00;99.90;;;;;;4895999;29;20045;-72
2021/09/09 10:16:38;;;;;;;12.88;5.32;;;24.10;99.90;;;;;;4909312;29;20025;-76
2021/09/09 10:19:04;;;;;;;12.40;5.70;;;24.10;99.90;;;;;;4909078;29;20035;-75
2021/09/09 10:21:38;;;;;;;14.23;5.85;;;24.20;99.90;;;;;;4909283;29;20116;-75
2021/09/09 10:24:17;;;;;;;11.15;5.38;;;24.20;99.90;;;;;;4910462;29;20036;-75
2021/09/09 10:26:44;;;;;;;9.23;5.25;;;24.30;99.90;;;;;;4927499;29;20036;-72
2021/09/09 10:29:57;;;;;;;12.05;5.63;;;24.40;99.90;;;;;;4927912;29;20029;-72
2021/09/09 10:32:32;;;;;;;8.38;4.78;;;24.50;99.90;;;;;;4927562;29;20032;-75
2021/09/09 10:35:15;;;;;;;10.15;4.43;;;24.50;99.90;;;;;;4928019;29;20029;-73
2021/09/09 10:37:41;;;;;;;8.10;3.78;;;24.60;99.90;;;;;;4928075;29;20040;-75
2021/09/09 10:40:07;;;;;;;7.60;4.50;;;24.80;99.90;;;;;;4927488;29;20028;-73
2021/09/09 10:42:37;;;;;;;5.97;4.20;;;24.90;99.90;;;;;;4927785;29;20044;-73
2021/09/09 10:45:04;;;;;;;8.30;4.70;;;25.00;99.90;;;;;;4910801;29;20036;-75
2021/09/09 10:47:30;;;;;;;8.63;4.20;;;25.00;99.90;;;;;;4927375;29;20115;-74
2021/09/09 10:50:04;;;;;;;6.22;3.58;;;25.20;99.90;;;;;;4927934;29;20480;-75
2021/09/09 10:52:30;;;;;;;9.93;4.38;;;25.20;99.90;;;;;;4928199;29;20028;-75
2021/09/09 10:55:05;;;;;;;8.15;4.03;;;25.30;99.90;;;;;;4927641;29;20042;-72
2021/09/09 10:57:31;;;;;;;6.78;4.05;;;25.50;99.90;;;;;;4928171;29;20115;-73
2021/09/09 10:59:57;;;;;;;7.45;3.92;;;25.60;99.90;;;;;;4910729;29;20504;-74
2021/09/09 11:02:22;;;;;;;8.85;4.95;;;25.70;99.90;;;;;;4927189;29;20040;-74
2021/09/09 11:04:49;;;;;;;6.45;3.85;;;25.70;99.90;;;;;;4927607;29;20500;-74
2021/09/09 11:07:27;;;;;;;6.80;3.55;;;25.80;99.90;;;;;;4927478;29;20056;-77
2021/09/09 11:09:58;;;;;;;10.00;3.97;;;25.80;99.90;;;;;;4927390;29;20024;-74
2021/09/09 11:12:24;;;;;;;7.35;3.97;;;25.90;99.90;;;;;;4927950;29;20060;-75
2021/09/09 11:15:02;;;;;;;10.70;4.22;;;26.00;99.90;;;;;;4906055;29;20052;-74
2021/09/09 11:17:27;;;;;;;8.48;4.03;;;26.10;99.90;;;;;;4908724;29;20028;-74
2021/09/09 11:20:09;;;;;;;8.00;4.28;;;26.20;99.90;;;;;;4911275;29;20108;-76
2021/09/09 11:22:36;;;;;;;8.50;4.30;;;26.40;99.90;;;;;;4920991;29;20055;-77
2021/09/09 11:25:02;;;;;;;8.10;4.00;;;26.50;99.90;;;;;;4912081;29;20084;-72
2021/09/09 11:27:33;;;;;;;7.28;4.18;;;26.60;99.90;;;;;;4912013;29;20118;-74
2021/09/09 11:30:00;;;;;;;10.93;4.65;;;26.70;99.90;;;;;;4911671;29;20060;-74
2021/09/09 11:32:27;;;;;;;22.90;4.05;;;26.70;99.90;;;;;;4912038;29;20049;-76
2021/09/09 11:35:04;;;;;;;8.98;3.70;;;26.70;99.90;;;;;;4911600;29;20029;-75
2021/09/09 11:37:30;;;;;;;7.97;3.85;;;26.80;99.90;;;;;;4911885;29;20036;-73
2021/09/09 11:40:03;;;;;;;6.15;3.53;;;26.80;99.90;;;;;;4894835;29;20033;-76
2021/09/09 11:42:29;;;;;;;7.55;3.55;;;26.80;99.90;;;;;;4911445;29;20524;-74
2021/09/09 11:44:59;;;;;;;6.70;3.35;;;26.90;99.90;;;;;;4911408;29;20025;-73
2021/09/09 11:47:26;;;;;;;6.93;3.83;;;26.90;99.90;;;;;;4894469;29;20048;-75
2021/09/09 11:50:00;;;;;;;10.52;4.18;;;27.00;99.90;;;;;;4911289;29;20044;-75
2021/09/09 11:52:26;;;;;;;;;;;27.10;99.90;;;;;;4895112;29;20028;-74
2021/09/09 11:54:52;;;;;;;5.35;3.42;;;27.30;99.90;;;;;;4911485;29;19911;-74
2021/09/09 11:57:18;;;;;;;7.38;3.55;;;27.40;99.90;;;;;;4910849;29;20041;-76
2021/09/09 11:59:52;;;;;;;8.23;3.33;;;27.60;99.90;;;;;;4894318;29;20029;-76
2021/09/09 12:02:29;;;;;;;;;;;27.70;99.90;;;;;;4911541;29;20061;-75
2021/09/09 12:04:56;;;;;;;5.90;3.05;;;27.90;99.90;;;;;;4910970;29;19912;-75
2021/09/09 12:07:25;;;;;;;11.90;3.05;;;28.10;99.90;;;;;;4911284;29;20032;-73
2021/09/09 12:09:59;;;;;;;6.07;3.22;;;28.10;99.90;;;;;;4911217;29;20032;-75
2021/09/09 12:12:30;;;;;;;7.00;3.17;;;28.10;99.90;;;;;;4910448;29;20039;-72
2021/09/09 12:15:08;;;;;;;6.22;3.40;;;28.20;99.90;;;;;;4911224;29;20056;-75
2021/09/09 12:17:35;;;;;;;7.63;3.25;;;28.30;99.90;;;;;;4911038;29;20200;-74
2021/09/09 12:20:03;;;;;;;5.53;3.30;;;28.40;99.90;;;;;;4910862;29;20039;-75
2021/09/09 12:22:48;;;;;;;7.10;3.10;;;28.40;99.90;;;;;;4910796;29;20044;-73
2021/09/09 12:25:27;;;;;;;6.97;3.45;;;28.60;99.90;;;;;;4910758;29;20036;-75
2021/09/09 12:28:03;;;;;;;5.55;3.40;;;28.80;99.90;;;;;;4911050;29;20104;-75
2021/09/09 12:30:34;;;;;;;20.75;2.88;;;29.10;99.90;;;;;;4910455;29;20482;-73
2021/09/09 12:33:03;;;;;;;6.60;3.58;;;29.20;99.90;;;;;;4910774;29;20021;-74
2021/09/09 12:35:29;;;;;;;5.68;3.35;;;29.30;99.90;;;;;;4910876;29;20033;-73
2021/09/09 12:38:11;;;;;;;7.25;3.35;;;29.30;99.90;;;;;;4893999;29;20053;-74
2021/09/09 12:40:44;;;;;;;8.52;3.95;;;29.40;99.90;;;;;;4910336;29;20064;-71
2021/09/09 12:43:40;;;;;;;5.53;3.33;;;29.50;99.90;;;;;;4893686;29;20063;-74